Time;durP1;ratioP1;P1;durP2;ratioP2;P2;SDS_P1;SDS_P2;PMS_P1;PMS_P2;Temp;Humidity;BMP_temperature;BMP_pressure;BME280_temperature;BME280_humidity;BME280_pressure;Samples;Min_cycle;Max_cycle;Signal;HPM_P1;HPM_P2
2023/05/30 00:03:38;;;;;;;9.07;5.88;;;;;;;;;;8454446;28;20143;-90
2023/05/30 00:07:42;;;;;;;13.55;6.43;;;;;;;;;;8468502;27;20050;-91
2023/05/30 00:11:45;;;;;;;9.82;6.05;;;;;;;;;;8460271;28;20036;-90
2023/05/30 00:15:49;;;;;;;11.85;7.03;;;;;;;;;;8463974;27;20040;-92
2023/05/30 00:19:54;;;;;;;12.15;7.18;;;;;;;;;;8457557;27;20048;-90
2023/05/30 00:23:58;;;;;;;12.55;7.10;;;;;;;;;;8460953;28;20040;-90
2023/05/30 00:28:01;;;;;;;8.90;6.25;;;;;;;;;;8451304;27;20042;-90
2023/05/30 00:32:07;;;;;;;10.43;6.18;;;;;;;;;;8445700;28;20590;-90
2023/05/30 00:36:10;;;;;;;8.38;6.10;;;;;;;;;;8461412;28;20040;-90
2023/05/30 00:40:15;;;;;;;10.80;6.50;;;;;;;;;;8446211;28;20040;-90
2023/05/30 00:44:21;;;;;;;15.30;6.68;;;;;;;;;;8453293;28;20101;-91
2023/05/30 00:48:24;;;;;;;9.45;6.15;;;;;;;;;;8456103;28;20066;-91
2023/05/30 00:52:28;;;;;;;10.60;6.43;;;;;;;;;;8446207;28;20039;-90
2023/05/30 00:56:32;;;;;;;10.05;6.82;;;;;;;;;;8456456;28;20709;-91
2023/05/30 01:00:38;;;;;;;15.10;7.38;;;;;;;;;;8446223;28;20039;-90
2023/05/30 01:04:41;;;;;;;12.63;6.57;;;;;;;;;;8438193;28;20228;-90
2023/05/30 01:08:44;;;;;;;8.77;6.22;;;;;;;;;;8468877;28;20529;-92
2023/05/30 01:13:02;;;;;;;12.65;6.78;;;;;;;;;;8457311;28;20452;-91
2023/05/30 01:17:16;;;;;;;9.45;6.45;;;;;;;;;;8469428;28;20502;-91
2023/05/30 01:21:21;;;;;;;12.95;6.88;;;;;;;;;;8469311;28;20047;-92
2023/05/30 01:25:39;;;;;;;9.70;6.43;;;;;;;;;;8469113;28;20051;-91
2023/05/30 01:29:44;;;;;;;10.13;6.95;;;;;;;;;;8469263;28;20137;-92
2023/05/30 01:33:47;;;;;;;12.15;7.80;;;;;;;;;;8468981;28;20047;-91
2023/05/30 01:37:50;;;;;;;10.07;7.07;;;;;;;;;;8468810;28;20048;-91
2023/05/30 01:42:02;;;;;;;14.68;6.82;;;;;;;;;;8468535;28;20043;-91
2023/05/30 01:46:14;;;;;;;10.80;6.77;;;;;;;;;;8468339;28;20501;-92
2023/05/30 01:50:18;;;;;;;10.00;6.93;;;;;;;;;;8467400;28;20781;-91
2023/05/30 01:54:22;;;;;;;14.40;8.55;;;;;;;;;;8454681;28;20142;-91
2023/05/30 01:58:25;;;;;;;12.85;7.85;;;;;;;;;;8467891;28;20044;-89
2023/05/30 02:02:30;;;;;;;10.00;6.80;;;;;;;;;;8467702;28;20063;-92
2023/05/30 02:06:33;;;;;;;9.90;7.10;;;;;;;;;;8467996;28;20046;-91
2023/05/30 02:10:36;;;;;;;12.63;7.60;;;;;;;;;;8468335;28;20048;-92
2023/05/30 02:14:38;;;;;;;12.98;6.93;;;;;;;;;;8468311;28;20135;-93
2023/05/30 02:18:43;;;;;;;11.30;7.43;;;;;;;;;;8467994;28;20052;-91
2023/05/30 02:22:46;;;;;;;13.25;8.15;;;;;;;;;;8467749;28;20482;-92
2023/05/30 02:26:48;;;;;;;12.90;7.97;;;;;;;;;;8467586;28;20048;-93
2023/05/30 02:30:51;;;;;;;15.63;10.20;;;;;;;;;;8467794;28;20448;-93
2023/05/30 02:34:56;;;;;;;17.40;9.73;;;;;;;;;;8467625;28;20894;-91
2023/05/30 02:39:05;;;;;;;18.17;9.15;;;;;;;;;;8467507;28;20130;-93
2023/05/30 02:43:08;;;;;;;13.45;8.68;;;;;;;;;;8459479;28;20130;-91
2023/05/30 02:47:11;;;;;;;38.92;15.65;;;;;;;;;;8467156;28;20048;-93
2023/05/30 02:51:15;;;;;;;14.85;9.98;;;;;;;;;;8467199;28;20092;-93
2023/05/30 02:55:18;;;;;;;23.55;13.13;;;;;;;;;;8466897;28;20039;-94
2023/05/30 02:59:21;;;;;;;15.93;9.07;;;;;;;;;;8466954;28;20479;-91
2023/05/30 03:03:25;;;;;;;24.02;12.23;;;;;;;;;;8466444;28;20559;-93
2023/05/30 03:07:29;;;;;;;19.20;10.88;;;;;;;;;;8466510;28;20075;-91
2023/05/30 03:11:32;;;;;;;26.85;14.77;;;;;;;;;;8465963;28;20047;-91
2023/05/30 03:15:39;;;;;;;33.92;15.30;;;;;;;;;;8465944;28;20055;-91
2023/05/30 03:19:41;;;;;;;31.23;15.55;;;;;;;;;;8466188;28;20036;-91
2023/05/30 03:23:48;;;;;;;32.28;15.18;;;;;;;;;;8466345;28;20122;-92
2023/05/30 03:27:51;;;;;;;29.55;15.63;;;;;;;;;;8452284;28;20126;-91
2023/05/30 03:31:54;;;;;;;27.27;15.30;;;;;;;;;;8465825;28;20070;-92
2023/05/30 03:35:57;;;;;;;21.70;14.30;;;;;;;;;;8464697;28;20071;-93
2023/05/30 03:40:01;;;;;;;24.48;14.40;;;;;;;;;;8465139;28;20503;-93
2023/05/30 03:44:04;;;;;;;18.63;12.65;;;;;;;;;;8465191;28;20411;-93
2023/05/30 03:48:07;;;;;;;20.40;11.73;;;;;;;;;;8465289;28;20138;-92
2023/05/30 03:52:10;;;;;;;18.98;10.70;;;;;;;;;;8465076;28;20043;-94
2023/05/30 03:56:15;;;;;;;18.88;11.35;;;;;;;;;;8464920;28;20093;-91
2023/05/30 04:00:18;;;;;;;17.75;11.85;;;;;;;;;;8464701;28;20048;-91
2023/05/30 04:04:21;;;;;;;19.05;12.38;;;;;;;;;;8464343;28;20052;-93
2023/05/30 04:08:24;;;;;;;14.80;11.00;;;;;;;;;;8463876;28;20044;-93
2023/05/30 04:12:28;;;;;;;23.25;10.60;;;;;;;;;;8464545;28;20051;-93
2023/05/30 04:16:31;;;;;;;15.55;9.57;;;;;;;;;;8464120;28;20157;-93
2023/05/30 04:20:34;;;;;;;16.77;9.57;;;;;;;;;;8464226;28;20562;-93
2023/05/30 04:24:38;;;;;;;17.50;10.80;;;;;;;;;;8463983;28;20074;-93
2023/05/30 04:28:43;;;;;;;16.02;9.32;;;;;;;;;;8463989;28;20123;-91
2023/05/30 04:32:46;;;;;;;13.75;9.13;;;;;;;;;;8463672;28;20419;-92
2023/05/30 04:36:53;;;;;;;12.43;8.38;;;;;;;;;;8463709;28;20082;-92
2023/05/30 04:40:56;;;;;;;16.63;8.30;;;;;;;;;;8463841;28;20043;-92
2023/05/30 04:45:01;;;;;;;12.63;7.00;;;;;;;;;;8463202;28;20070;-92
2023/05/30 04:49:06;;;;;;;16.20;7.60;;;;;;;;;;8463400;28;20040;-93
2023/05/30 04:53:09;;;;;;;13.15;6.68;;;;;;;;;;8463993;28;20043;-93
2023/05/30 04:57:12;;;;;;;12.48;6.70;;;;;;;;;;8463341;28;20123;-93
2023/05/30 05:01:18;;;;;;;14.88;6.90;;;;;;;;;;8463150;28;20044;-91
2023/05/30 05:05:21;;;;;;;11.18;5.97;;;;;;;;;;8463143;28;20040;-93
2023/05/30 05:09:24;;;;;;;10.50;6.13;;;;;;;;;;8462832;28;20059;-93
2023/05/30 05:13:27;;;;;;;13.40;5.45;;;;;;;;;;8463000;28;20047;-93
2023/05/30 05:17:31;;;;;;;10.45;4.90;;;;;;;;;;8462798;28;20063;-93
2023/05/30 05:21:35;;;;;;;10.23;4.43;;;;;;;;;;8463880;28;20716;-94
2023/05/30 05:25:38;;;;;;;6.88;3.40;;;;;;;;;;8465347;28;20071;-95
2023/05/30 05:29:41;;;;;;;7.38;2.85;;;;;;;;;;8462038;28;20039;-94
2023/05/30 05:33:46;;;;;;;9.52;4.03;;;;;;;;;;8460986;28;20039;-95
2023/05/30 05:37:51;;;;;;;9.57;2.90;;;;;;;;;;8452332;28;20071;-95
2023/05/30 05:41:54;;;;;;;5.32;2.38;;;;;;;;;;8457758;28;20046;-95
2023/05/30 05:45:57;;;;;;;6.13;2.60;;;;;;;;;;8460708;28;20062;-95
2023/05/30 05:50:02;;;;;;;9.82;2.17;;;;;;;;;;8461265;28;20066;-94
2023/05/30 05:54:05;;;;;;;5.88;2.13;;;;;;;;;;8460664;28;20086;-94
2023/05/30 05:58:09;;;;;;;5.22;2.00;;;;;;;;;;8461365;28;20051;-95
2023/05/30 06:02:13;;;;;;;8.75;2.10;;;;;;;;;;8478360;27;20052;-95
2023/05/30 06:06:18;;;;;;;7.50;2.10;;;;;;;;;;8464191;28;20043;-95
2023/05/30 06:10:21;;;;;;;6.65;2.45;;;;;;;;;;8471134;27;20039;-96
2023/05/30 06:14:42;;;;;;;6.38;2.00;;;;;;;;;;8471148;28;20040;-95
2023/05/30 06:18:45;;;;;;;6.32;2.17;;;;;;;;;;8471504;28;20055;-95
2023/05/30 06:22:50;;;;;;;3.67;1.98;;;;;;;;;;8471946;28;20048;-96
2023/05/30 06:26:57;;;;;;;5.85;2.10;;;;;;;;;;8443641;28;20048;-94
2023/05/30 06:31:01;;;;;;;6.10;2.28;;;;;;;;;;8471223;28;20603;-95
2023/05/30 06:35:05;;;;;;;4.70;2.13;;;;;;;;;;8469968;28;20077;-96
2023/05/30 06:39:15;;;;;;;5.20;2.20;;;;;;;;;;8467701;28;20490;-95
2023/05/30 06:43:21;;;;;;;8.50;2.50;;;;;;;;;;8469551;28;20460;-96
2023/05/30 06:52:04;;;;;;;7.03;2.47;;;;;;;;;;8486545;28;20048;-96
2023/05/30 06:56:18;;;;;;;4.68;2.10;;;;;;;;;;8448960;28;20051;-96
2023/05/30 07:00:32;;;;;;;7.85;2.00;;;;;;;;;;8480307;28;20043;-96
2023/05/30 07:04:50;;;;;;;5.80;2.08;;;;;;;;;;8475306;28;20059;-96
2023/05/30 07:09:12;;;;;;;5.03;2.10;;;;;;;;;;8469796;27;20107;-96
2023/05/30 07:13:18;;;;;;;5.38;2.10;;;;;;;;;;8464220;27;20046;-96
2023/05/30 07:17:24;;;;;;;5.80;2.28;;;;;;;;;;8467942;27;20039;-96
2023/05/30 07:21:29;;;;;;;6.97;2.40;;;;;;;;;;8467500;28;20069;-96
2023/05/30 07:25:34;;;;;;;4.65;2.25;;;;;;;;;;8466511;28;20138;-96
2023/05/30 07:29:44;;;;;;;5.72;2.10;;;;;;;;;;8469056;28;20050;-96
2023/05/30 07:33:48;;;;;;;7.30;2.33;;;;;;;;;;8462314;27;20613;-94
2023/05/30 07:42:27;;;;;;;7.20;2.60;;;;;;;;;;8468601;28;20036;-95
2023/05/30 07:46:43;;;;;;;5.32;2.38;;;;;;;;;;8467397;28;20402;-96
2023/05/30 07:51:02;;;;;;;5.05;2.17;;;;;;;;;;8465401;28;20061;-96
2023/05/30 07:55:14;;;;;;;8.45;2.40;;;;;;;;;;8465201;28;20498;-95
2023/05/30 07:59:24;;;;;;;6.35;2.30;;;;;;;;;;8417872;28;20063;-96
2023/05/30 08:03:35;;;;;;;4.65;1.90;;;;;;;;;;8466409;28;20055;-94
2023/05/30 08:07:49;;;;;;;5.93;2.37;;;;;;;;;;8466408;28;20052;-95
2023/05/30 08:11:56;;;;;;;4.57;2.15;;;;;;;;;;8453998;28;20134;-95
2023/05/30 08:16:10;;;;;;;7.65;2.55;;;;;;;;;;8465358;28;20499;-95
2023/05/30 08:20:16;;;;;;;7.82;2.40;;;;;;;;;;8464442;28;20066;-95
2023/05/30 08:24:28;;;;;;;6.28;2.35;;;;;;;;;;8464415;28;20439;-95
2023/05/30 08:28:40;;;;;;;5.78;2.10;;;;;;;;;;8465398;28;20052;-94
2023/05/30 08:32:59;;;;;;;4.68;2.30;;;;;;;;;;8453538;28;20134;-95
2023/05/30 08:41:33;;;;;;;4.78;2.28;;;;;;;;;;8465515;28;20057;-94
2023/05/30 08:45:43;;;;;;;6.10;2.35;;;;;;;;;;8446772;28;20498;-96
2023/05/30 08:49:57;;;;;;;4.45;2.20;;;;;;;;;;8466178;28;20490;-96
2023/05/30 08:54:19;;;;;;;3.95;2.00;;;;;;;;;;8464341;28;20043;-95
2023/05/30 08:58:29;;;;;;;17.88;3.47;;;;;;;;;;8462742;28;20048;-94
2023/05/30 09:02:32;;;;;;;7.32;2.25;;;;;;;;;;8462491;28;20051;-93
2023/05/30 09:06:37;;;;;;;9.15;2.80;;;;;;;;;;8462528;28;20471;-93
2023/05/30 09:10:47;;;;;;;5.43;2.40;;;;;;;;;;8461884;28;20491;-94
2023/05/30 09:14:51;;;;;;;4.75;2.13;;;;;;;;;;8463919;28;20047;-95
2023/05/30 09:18:54;;;;;;;6.88;2.40;;;;;;;;;;8461620;28;20048;-94
2023/05/30 09:22:57;;;;;;;9.13;2.67;;;;;;;;;;8462688;28;20113;-94
2023/05/30 09:27:05;;;;;;;8.35;2.67;;;;;;;;;;8463002;28;20050;-95
2023/05/30 09:31:12;;;;;;;5.53;2.13;;;;;;;;;;8451001;28;20055;-95
2023/05/30 09:35:15;;;;;;;4.85;2.50;;;;;;;;;;8463109;28;20071;-93
2023/05/30 09:39:19;;;;;;;4.85;2.42;;;;;;;;;;8467523;28;20048;-96
2023/05/30 09:43:34;;;;;;;5.25;2.30;;;;;;;;;;8473797;28;20506;-94
2023/05/30 09:47:42;;;;;;;5.28;2.40;;;;;;;;;;8467832;28;20112;-93
2023/05/30 09:51:45;;;;;;;5.13;2.35;;;;;;;;;;8475489;28;20495;-94
2023/05/30 09:55:50;;;;;;;5.30;2.60;;;;;;;;;;8475202;28;20497;-93
2023/05/30 09:59:58;;;;;;;9.20;3.00;;;;;;;;;;8472121;28;20437;-93
2023/05/30 10:04:01;;;;;;;6.10;2.42;;;;;;;;;;8466225;27;20466;-93
2023/05/30 10:08:05;;;;;;;6.53;2.63;;;;;;;;;;8482015;27;20384;-94
2023/05/30 10:12:12;;;;;;;6.57;2.47;;;;;;;;;;8475951;28;20058;-94
2023/05/30 10:16:20;;;;;;;6.70;2.42;;;;;;;;;;8473540;28;20134;-96
2023/05/30 10:20:28;;;;;;;6.55;2.70;;;;;;;;;;8476362;28;20134;-95
2023/05/30 10:24:38;;;;;;;6.65;2.55;;;;;;;;;;8478639;27;20052;-94
2023/05/30 10:28:45;;;;;;;6.60;2.42;;;;;;;;;;8475091;27;20131;-93
2023/05/30 10:37:21;;;;;;;6.22;2.22;;;;;;;;;;8472399;27;20075;-93
2023/05/30 10:41:34;;;;;;;6.65;2.42;;;;;;;;;;8485014;28;20047;-96
2023/05/30 10:45:56;;;;;;;6.38;2.58;;;;;;;;;;8471371;28;20108;-95
2023/05/30 10:50:03;;;;;;;;;;;;;;;;;;8477005;28;20127;-92
2023/05/30 10:54:07;;;;;;;6.05;2.50;;;;;;;;;;8473515;28;20362;-96
2023/05/30 10:58:38;;;;;;;7.93;2.63;;;;;;;;;;8455714;28;20054;-96
2023/05/30 11:02:54;;;;;;;5.93;2.40;;;;;;;;;;8480774;28;20048;-95
2023/05/30 11:07:05;;;;;;;5.78;2.83;;;;;;;;;;8476384;27;20047;-92
2023/05/30 11:11:17;;;;;;;9.32;2.53;;;;;;;;;;8456257;27;20047;-93
2023/05/30 11:15:35;;;;;;;6.90;2.20;;;;;;;;;;8471554;27;20040;-93
2023/05/30 11:19:42;;;;;;;5.10;2.20;;;;;;;;;;8467402;27;20050;-96
2023/05/30 11:28:36;;;;;;;4.97;2.13;;;;;;;;;;8422219;27;1512778;-94
2023/05/30 11:33:11;;;;;;;8.60;2.80;;;;;;;;;;8398833;28;20116;-94
2023/05/30 11:37:17;;;;;;;4.75;2.15;;;;;;;;;;8364340;22;20056;-95
2023/05/30 11:41:20;;;;;;;8.13;2.67;;;;;;;;;;8398636;28;20206;-91
2023/05/30 11:45:27;;;;;;;6.22;2.40;;;;;;;;;;8395767;28;20116;-94
2023/05/30 11:49:30;;;;;;;8.88;2.40;;;;;;;;;;8418981;28;20423;-95
2023/05/30 11:53:35;;;;;;;5.20;2.47;;;;;;;;;;8422830;28;20478;-94
2023/05/30 11:57:38;;;;;;;8.93;2.60;;;;;;;;;;8406107;28;20049;-95
2023/05/30 12:01:43;;;;;;;7.72;2.30;;;;;;;;;;8419339;28;20404;-93
2023/05/30 12:05:49;;;;;;;11.52;2.60;;;;;;;;;;8423048;28;20423;-95
2023/05/30 12:09:52;;;;;;;6.65;2.50;;;;;;;;;;8424829;28;20154;-95
2023/05/30 12:18:16;;;;;;;4.60;2.13;;;;;;;;;;8419360;28;20052;-91
2023/05/30 12:22:20;;;;;;;8.25;2.60;;;;;;;;;;8411147;28;20064;-95
2023/05/30 12:26:25;;;;;;;6.70;2.78;;;;;;;;;;8420429;28;20032;-92
2023/05/30 12:30:40;;;;;;;7.68;2.67;;;;;;;;;;8421478;28;20064;-92
2023/05/30 12:34:46;;;;;;;8.55;2.30;;;;;;;;;;8423764;28;20072;-95
2023/05/30 12:38:55;;;;;;;5.72;2.20;;;;;;;;;;8405918;28;20408;-93
2023/05/30 12:42:58;;;;;;;5.57;2.17;;;;;;;;;;8402681;28;20079;-96
2023/05/30 12:47:04;;;;;;;6.88;2.80;;;;;;;;;;8400084;28;20048;-93
2023/05/30 12:51:11;;;;;;;8.45;2.38;;;;;;;;;;8400198;28;20044;-94
2023/05/30 12:55:14;;;;;;;7.00;2.35;;;;;;;;;;8402663;28;20037;-93
2023/05/30 12:59:17;;;;;;;8.05;2.40;;;;;;;;;;8405809;28;20468;-95
2023/05/30 13:03:21;;;;;;;6.55;2.28;;;;;;;;;;8402942;28;20044;-94
2023/05/30 13:07:27;;;;;;;7.20;2.40;;;;;;;;;;8393219;28;20377;-93
2023/05/30 13:11:41;;;;;;;6.50;2.22;;;;;;;;;;8405307;28;20083;-94
2023/05/30 13:15:45;;;;;;;5.40;2.20;;;;;;;;;;8401597;28;20051;-94
2023/05/30 13:19:48;;;;;;;4.05;1.92;;;;;;;;;;8401166;28;20044;-93
2023/05/30 13:23:53;;;;;;;7.70;2.35;;;;;;;;;;8403668;28;20491;-96
2023/05/30 13:27:56;;;;;;;6.97;2.40;;;;;;;;;;8401478;28;20048;-92
2023/05/30 13:32:00;;;;;;;8.35;2.70;;;;;;;;;;8402633;28;20048;-92
2023/05/30 13:36:03;;;;;;;5.75;2.35;;;;;;;;;;8403581;28;20104;-93
2023/05/30 13:40:10;;;;;;;8.15;2.65;;;;;;;;;;8403556;28;20496;-93
2023/05/30 13:44:13;;;;;;;5.68;2.50;;;;;;;;;;8396833;28;20044;-92
2023/05/30 13:48:19;;;;;;;10.82;2.33;;;;;;;;;;8397795;28;20048;-96
2023/05/30 13:52:23;;;;;;;4.93;2.13;;;;;;;;;;8407258;28;20049;-91
2023/05/30 14:39:22;;;;;;;6.83;2.17;;;;;;;;;;8258262;27;4299880;-88
2023/05/30 14:43:26;;;;;;;5.88;2.15;;;;;;;;;;8373150;28;20069;-89
2023/05/30 14:47:30;;;;;;;5.30;2.05;;;;;;;;;;8375453;28;20045;-92
2023/05/30 14:51:36;;;;;;;10.77;2.00;;;;;;;;;;8355711;28;20046;-89
2023/05/30 14:55:43;;;;;;;5.85;2.17;;;;;;;;;;8365012;28;20047;-89
2023/05/30 14:59:50;;;;;;;6.55;2.10;;;;;;;;;;8374245;28;20127;-89
2023/05/30 15:03:57;;;;;;;4.40;2.10;;;;;;;;;;8368007;28;20496;-91
2023/05/30 15:08:00;;;;;;;6.28;2.38;;;;;;;;;;8358717;28;20120;-92
2023/05/30 15:12:09;;;;;;;6.07;2.10;;;;;;;;;;8368989;28;20045;-90
2023/05/30 15:16:16;;;;;;;8.18;2.42;;;;;;;;;;8375548;28;20683;-92
2023/05/30 15:20:19;;;;;;;7.00;2.20;;;;;;;;;;8358299;28;20060;-93
2023/05/30 15:24:22;;;;;;;5.80;2.13;;;;;;;;;;8375274;28;20041;-90
2023/05/30 15:28:26;;;;;;;8.80;2.40;;;;;;;;;;8370004;28;20045;-89
2023/05/30 15:32:31;;;;;;;4.60;1.90;;;;;;;;;;8375484;28;20062;-87
2023/05/30 15:36:34;;;;;;;8.00;2.40;;;;;;;;;;8373951;28;20064;-88
2023/05/30 15:40:36;;;;;;;6.70;2.35;;;;;;;;;;8363978;28;20124;-88
2023/05/30 15:44:41;;;;;;;8.02;2.22;;;;;;;;;;8344308;28;20045;-90
2023/05/30 15:48:44;;;;;;;5.65;2.20;;;;;;;;;;8354175;28;20141;-88
2023/05/30 15:53:00;;;;;;;6.40;2.00;;;;;;;;;;8342887;28;20045;-87
2023/05/30 15:57:08;;;;;;;7.78;2.33;;;;;;;;;;8346137;28;20664;-91
2023/05/30 16:01:14;;;;;;;6.20;2.17;;;;;;;;;;8345881;28;20156;-94
2023/05/30 16:05:17;;;;;;;5.93;2.40;;;;;;;;;;8350372;28;20048;-88
2023/05/30 16:09:21;;;;;;;4.18;1.85;;;;;;;;;;8348375;28;20113;-90
2023/05/30 16:13:27;;;;;;;6.53;2.22;;;;;;;;;;8341850;28;20065;-89
2023/05/30 16:17:32;;;;;;;7.53;2.35;;;;;;;;;;8340195;28;20044;-91
2023/05/30 16:21:36;;;;;;;6.70;2.40;;;;;;;;;;8334735;28;20070;-89
2023/05/30 16:25:39;;;;;;;6.90;2.28;;;;;;;;;;8345142;28;20044;-88
2023/05/30 16:29:42;;;;;;;4.47;2.10;;;;;;;;;;8328585;28;20072;-90
2023/05/30 16:33:47;;;;;;;6.03;2.30;;;;;;;;;;8352507;28;20121;-92
2023/05/30 16:38:36;;;;;;;5.68;2.35;;;;;;;;;;8358180;28;20059;-90
2023/05/30 16:42:39;;;;;;;7.90;2.47;;;;;;;;;;8347167;28;20132;-89
2023/05/30 16:46:42;;;;;;;3.50;1.80;;;;;;;;;;8349000;28;20037;-88
2023/05/30 16:50:49;;;;;;;11.45;2.28;;;;;;;;;;8329596;28;20037;-89
2023/05/30 16:54:53;;;;;;;6.95;2.60;;;;;;;;;;8340423;28;20049;-91
2023/05/30 16:58:57;;;;;;;4.25;2.10;;;;;;;;;;8324622;28;20049;-89
2023/05/30 17:03:00;;;;;;;4.88;2.17;;;;;;;;;;8348405;28;20707;-88
2023/05/30 17:07:05;;;;;;;4.57;2.10;;;;;;;;;;8353970;28;20102;-91
2023/05/30 17:11:07;;;;;;;4.38;1.98;;;;;;;;;;8332271;28;20140;-89
2023/05/30 17:15:11;;;;;;;3.75;2.20;;;;;;;;;;8345864;28;20403;-89
2023/05/30 17:19:23;;;;;;;4.72;2.15;;;;;;;;;;8343384;28;20114;-89
2023/05/30 17:23:41;;;;;;;8.60;2.20;;;;;;;;;;8322347;28;20044;-95
2023/05/30 17:27:51;;;;;;;8.07;2.13;;;;;;;;;;8334797;28;20065;-91
2023/05/30 17:31:57;;;;;;;8.85;2.13;;;;;;;;;;8317655;28;20053;-89
2023/05/30 17:36:04;;;;;;;6.53;2.08;;;;;;;;;;8339097;28;20128;-88
2023/05/30 17:40:12;;;;;;;4.30;2.00;;;;;;;;;;8325040;28;20049;-89
2023/05/30 17:44:15;;;;;;;4.93;1.90;;;;;;;;;;8361241;28;20064;-93
2023/05/30 17:48:19;;;;;;;4.82;1.92;;;;;;;;;;8357224;28;20049;-91
2023/05/30 17:52:23;;;;;;;5.97;2.20;;;;;;;;;;8340917;28;20052;-89
2023/05/30 17:56:58;;;;;;;5.90;2.20;;;;;;;;;;8345378;28;20044;-90
2023/05/30 18:01:01;;;;;;;7.18;3.10;;;;;;;;;;8336829;28;20127;-94
2023/05/30 18:05:05;;;;;;;3.90;2.08;;;;;;;;;;8340479;28;20048;-89
2023/05/30 18:09:13;;;;;;;6.22;2.55;;;;;;;;;;8353772;28;20041;-89
2023/05/30 18:13:23;;;;;;;6.88;2.38;;;;;;;;;;8312749;28;20479;-89
2023/05/30 18:17:30;;;;;;;4.40;2.40;;;;;;;;;;8337862;28;20459;-94
2023/05/30 18:21:37;;;;;;;5.25;2.55;;;;;;;;;;8357787;28;20124;-94
2023/05/30 18:25:41;;;;;;;11.45;3.17;;;;;;;;;;8342123;28;20041;-88
2023/05/30 18:29:45;;;;;;;9.65;3.78;;;;;;;;;;8340547;28;20476;-89
2023/05/30 18:33:51;;;;;;;10.38;3.92;;;;;;;;;;8326356;28;20227;-87
2023/05/30 18:37:55;;;;;;;7.85;4.25;;;;;;;;;;8329639;28;20160;-87
2023/05/30 18:41:59;;;;;;;8.38;4.53;;;;;;;;;;8355015;28;20045;-87
2023/05/30 18:46:04;;;;;;;14.50;5.28;;;;;;;;;;8346241;28;20033;-87
2023/05/30 18:50:08;;;;;;;9.90;4.80;;;;;;;;;;8338946;28;20101;-88
2023/05/30 18:54:11;;;;;;;11.70;5.63;;;;;;;;;;8355646;28;20052;-86
2023/05/30 18:58:14;;;;;;;9.50;4.35;;;;;;;;;;8334527;28;20134;-89
2023/05/30 19:02:19;;;;;;;15.20;4.45;;;;;;;;;;8338308;28;20049;-88
2023/05/30 19:06:22;;;;;;;9.27;5.13;;;;;;;;;;8339402;28;20049;-89
2023/05/30 19:10:26;;;;;;;10.77;4.80;;;;;;;;;;8322588;28;20045;-88
2023/05/30 19:14:29;;;;;;;15.05;6.43;;;;;;;;;;8361462;28;20045;-88
2023/05/30 19:18:36;;;;;;;13.63;5.47;;;;;;;;;;8345601;28;20072;-89
2023/05/30 19:22:39;;;;;;;12.55;5.60;;;;;;;;;;8330527;28;20444;-89
2023/05/30 19:26:42;;;;;;;15.50;5.95;;;;;;;;;;8347893;28;20445;-88
2023/05/30 19:30:45;;;;;;;16.67;5.35;;;;;;;;;;8320633;28;20061;-87
2023/05/30 19:34:50;;;;;;;11.27;5.55;;;;;;;;;;8336707;28;20045;-88
2023/05/30 19:38:53;;;;;;;14.63;5.18;;;;;;;;;;8344063;28;20053;-88
2023/05/30 19:42:56;;;;;;;10.15;4.85;;;;;;;;;;8349373;28;20462;-88
2023/05/30 19:46:59;;;;;;;10.70;4.05;;;;;;;;;;8347854;28;20472;-88
2023/05/30 19:51:03;;;;;;;11.02;4.53;;;;;;;;;;8325816;28;20046;-88
2023/05/30 19:55:10;;;;;;;10.45;4.28;;;;;;;;;;8329014;28;20060;-87
2023/05/30 19:59:13;;;;;;;10.75;3.83;;;;;;;;;;8342529;28;20046;-88
2023/05/30 20:03:18;;;;;;;15.95;5.28;;;;;;;;;;8342210;28;20577;-88
2023/05/30 20:07:23;;;;;;;12.13;4.13;;;;;;;;;;8338152;28;20044;-87
2023/05/30 20:11:26;;;;;;;10.23;4.28;;;;;;;;;;8345323;28;20049;-87
2023/05/30 20:15:29;;;;;;;8.07;3.88;;;;;;;;;;8350883;28;20061;-87
2023/05/30 20:19:32;;;;;;;6.05;3.78;;;;;;;;;;8338113;28;20061;-86
2023/05/30 20:23:37;;;;;;;15.73;4.07;;;;;;;;;;8341485;28;20057;-87
2023/05/30 20:27:40;;;;;;;5.90;3.47;;;;;;;;;;8345293;28;20537;-87
2023/05/30 20:31:43;;;;;;;7.70;3.50;;;;;;;;;;8361371;28;20049;-87
2023/05/30 20:35:46;;;;;;;10.55;3.83;;;;;;;;;;8333570;28;20533;-87
2023/05/30 20:39:50;;;;;;;7.35;3.28;;;;;;;;;;8352359;28;20041;-87
2023/05/30 20:43:53;;;;;;;11.73;4.28;;;;;;;;;;8343115;28;20057;-89
2023/05/30 20:47:56;;;;;;;9.05;4.15;;;;;;;;;;8360047;28;20132;-88
2023/05/30 20:51:59;;;;;;;10.70;3.75;;;;;;;;;;8333913;28;20097;-87
2023/05/30 20:56:04;;;;;;;7.53;3.83;;;;;;;;;;8346638;28;20047;-87
2023/05/30 21:00:08;;;;;;;16.35;4.47;;;;;;;;;;8346832;28;20053;-89
2023/05/30 21:04:11;;;;;;;6.07;3.67;;;;;;;;;;8329891;28;20113;-87
2023/05/30 21:08:15;;;;;;;7.82;3.85;;;;;;;;;;8343635;28;20037;-87
2023/05/30 21:12:20;;;;;;;9.45;3.78;;;;;;;;;;8310291;28;20106;-86
2023/05/30 21:16:23;;;;;;;10.23;3.53;;;;;;;;;;8343883;28;20127;-86
2023/05/30 21:20:25;;;;;;;8.25;4.13;;;;;;;;;;8346047;28;20045;-87
2023/05/30 21:24:28;;;;;;;6.97;4.20;;;;;;;;;;8345284;28;20046;-86
2023/05/30 21:28:33;;;;;;;10.57;3.70;;;;;;;;;;8350317;28;20089;-88
2023/05/30 21:32:36;;;;;;;10.40;3.85;;;;;;;;;;8341554;28;20049;-86
2023/05/30 21:36:39;;;;;;;8.23;4.00;;;;;;;;;;8334643;28;20084;-86
2023/05/30 21:40:43;;;;;;;6.57;3.63;;;;;;;;;;8332240;28;20489;-86
2023/05/30 21:44:48;;;;;;;7.70;3.47;;;;;;;;;;8319688;28;20398;-85
2023/05/30 21:48:51;;;;;;;7.18;3.85;;;;;;;;;;8324870;28;20049;-88
2023/05/30 21:52:54;;;;;;;6.88;4.22;;;;;;;;;;8341169;28;20045;-84
2023/05/30 21:56:57;;;;;;;9.07;4.20;;;;;;;;;;8358100;28;20083;-88
2023/05/30 22:01:02;;;;;;;6.20;3.70;;;;;;;;;;8348768;28;20536;-90
2023/05/30 22:05:06;;;;;;;9.70;3.75;;;;;;;;;;8349876;28;20109;-87
2023/05/30 22:09:23;;;;;;;9.35;4.53;;;;;;;;;;8343678;28;20438;-92
2023/05/30 22:13:26;;;;;;;9.70;4.40;;;;;;;;;;8354975;28;20053;-89
2023/05/30 22:17:30;;;;;;;8.23;4.45;;;;;;;;;;8343058;28;20051;-91
2023/05/30 22:21:33;;;;;;;7.35;4.32;;;;;;;;;;8340723;28;20129;-93
2023/05/30 22:25:36;;;;;;;9.75;4.45;;;;;;;;;;8347548;28;20042;-88
2023/05/30 22:29:40;;;;;;;11.75;4.22;;;;;;;;;;8356177;28;20045;-88
2023/05/30 22:33:44;;;;;;;8.82;3.78;;;;;;;;;;8347013;28;20081;-91
2023/05/30 22:37:47;;;;;;;7.75;4.22;;;;;;;;;;8326565;28;20463;-86
2023/05/30 22:41:50;;;;;;;7.35;4.05;;;;;;;;;;8333531;28;20633;-90
2023/05/30 22:45:53;;;;;;;7.70;3.90;;;;;;;;;;8358582;28;20178;-89
2023/05/30 22:49:57;;;;;;;8.20;4.38;;;;;;;;;;8338891;28;20129;-86
2023/05/30 22:54:00;;;;;;;7.32;4.00;;;;;;;;;;8349298;28;20109;-85
2023/05/30 22:58:03;;;;;;;14.15;4.63;;;;;;;;;;8348516;28;20519;-85
2023/05/30 23:02:07;;;;;;;8.10;4.10;;;;;;;;;;8356429;28;20473;-90
2023/05/30 23:06:11;;;;;;;8.02;4.20;;;;;;;;;;8354413;28;20045;-85
2023/05/30 23:31:26;;;;;;;7.85;4.28;;;;;;;;;;8347627;28;20481;-87
2023/05/30 23:35:29;;;;;;;8.70;4.40;;;;;;;;;;8332742;28;20065;-86
2023/05/30 23:39:32;;;;;;;10.13;4.50;;;;;;;;;;8336088;28;20148;-85
2023/05/30 23:43:34;;;;;;;10.15;4.78;;;;;;;;;;8359804;28;20476;-86
2023/05/30 23:47:39;;;;;;;8.43;4.55;;;;;;;;;;8348626;28;20132;-87
2023/05/30 23:51:41;;;;;;;6.97;4.28;;;;;;;;;;8327586;28;20109;-86
2023/05/30 23:55:44;;;;;;;9.25;4.78;;;;;;;;;;8335762;28;20127;-87
2023/05/30 23:59:48;;;;;;;10.13;4.68;;;;;;;;;;8347890;28;20508;-86
